createdAt,value
2023-02-21T00:02:17.118Z,101389.09
2023-02-21T00:05:02.279Z,101386.50
2023-02-21T00:07:48.239Z,101372.84
2023-02-21T00:10:34.723Z,101359.97
2023-02-21T00:13:21.760Z,101358.28
2023-02-21T00:16:07.575Z,101340.34
2023-02-21T00:18:53.426Z,101333.50
2023-02-21T00:21:38.872Z,101326.66
2023-02-21T00:24:25.057Z,101318.09
2023-02-21T00:27:10.490Z,101317.25
2023-02-21T00:29:57.359Z,101312.97
2023-02-21T00:32:42.950Z,101301.84
2023-02-21T00:35:29.247Z,101290.72
2023-02-21T00:38:14.872Z,101291.59
2023-02-21T00:41:00.725Z,101286.47
2023-02-21T00:43:47.544Z,101283.88
2023-02-21T00:46:35.252Z,101289.88
2023-02-21T00:49:21.331Z,101289.03
2023-02-21T00:52:06.568Z,101289.88
2023-02-21T00:54:52.279Z,101286.44
2023-02-21T00:57:38.005Z,101295.00
2023-02-21T01:00:24.931Z,101300.97
2023-02-21T01:03:14.063Z,101300.16
2023-02-21T01:05:59.443Z,101298.41
2023-02-21T01:08:45.041Z,101295.00
2023-02-21T01:11:33.939Z,101294.13
2023-02-21T01:14:19.621Z,101305.28
2023-02-21T01:17:12.804Z,101295.00
2023-02-21T01:20:00.402Z,101305.28
2023-02-21T01:22:46.259Z,101301.84
2023-02-21T01:25:33.148Z,101309.53
2023-02-21T01:28:19.048Z,101312.13
2023-02-21T01:31:04.491Z,101311.25
2023-02-21T01:33:54.833Z,101308.69
2023-02-21T01:36:41.523Z,101305.28
2023-02-21T01:39:27.361Z,101307.00
2023-02-21T01:42:12.728Z,101306.13
2023-02-21T01:44:59.343Z,101301.84
2023-02-21T01:47:45.848Z,101302.69
2023-02-21T01:50:40.041Z,101299.28
2023-02-21T01:53:30.737Z,101305.28
2023-02-21T01:56:18.630Z,101309.56
2023-02-21T01:59:08.713Z,101304.41
2023-02-21T02:02:03.406Z,101305.28
2023-02-21T02:04:50.723Z,101296.69
2023-02-21T02:07:35.996Z,101298.41
2023-02-21T02:10:23.746Z,101304.41
2023-02-21T02:13:13.586Z,101311.28
2023-02-21T02:15:48.928Z,101313.81
2023-02-21T02:18:36.128Z,101319.81
2023-02-21T02:21:24.638Z,101339.47
2023-02-21T02:24:21.760Z,101364.28
2023-02-21T02:27:32.256Z,101375.41
2023-02-21T02:30:27.026Z,101383.94
2023-02-21T02:33:23.355Z,101413.06
2023-02-21T02:35:57.228Z,101422.44
2023-02-21T02:38:30.957Z,101426.75
2023-02-21T02:41:05.231Z,101431.88
2023-02-21T06:48:30.152Z,101584.25
2023-02-21T06:50:58.453Z,101589.38
2023-02-21T06:53:26.911Z,101597.94
2023-02-21T06:55:54.641Z,101597.94
2023-02-21T06:58:22.812Z,101603.94
2023-02-21T07:00:51.954Z,101611.63
2023-02-21T07:03:19.728Z,101602.22
2023-02-21T07:05:47.797Z,101609.06
2023-02-21T07:08:15.570Z,101606.50
2023-02-21T07:10:43.454Z,101615.09
2023-02-21T07:13:11.253Z,101618.50
2023-02-21T07:15:39.076Z,101626.22
2023-02-21T07:18:08.254Z,101628.78
2023-02-21T07:20:36.113Z,101640.75
2023-02-21T07:23:04.053Z,101645.06
2023-02-21T07:25:31.924Z,101656.19
2023-02-21T07:27:59.827Z,101659.59
2023-02-21T07:30:27.756Z,101666.47
2023-02-21T07:32:55.595Z,101674.19
2023-02-21T07:35:24.727Z,101686.16
2023-02-21T07:37:52.692Z,101687.03
2023-02-21T07:40:20.526Z,101680.19
2023-02-21T07:42:48.883Z,101681.88
2023-02-21T07:45:17.391Z,101685.31
2023-02-21T07:47:48.130Z,101695.59
2023-02-21T07:50:17.105Z,101683.59
2023-02-21T07:52:47.336Z,101686.16
2023-02-21T07:55:15.818Z,101683.59
2023-02-21T07:57:43.607Z,101682.75
2023-02-21T08:00:12.395Z,101676.75
2023-02-21T08:02:49.715Z,101673.31
2023-02-21T08:05:19.663Z,101667.31
2023-02-21T08:07:48.773Z,101663.03
2023-02-21T08:10:22.568Z,101667.31
2023-02-21T08:12:50.455Z,101654.47
2023-02-21T08:15:18.742Z,101655.31
2023-02-21T08:17:49.026Z,101658.75
2023-02-21T08:20:17.206Z,101650.19
2023-02-21T08:22:45.104Z,101647.63
2023-02-21T08:25:15.825Z,101640.78
2023-02-21T08:27:44.304Z,101649.34
2023-02-21T08:30:14.910Z,101638.22
2023-02-21T08:32:43.891Z,101641.63
2023-02-21T08:35:14.529Z,101636.50
2023-02-21T08:37:45.447Z,101645.06
2023-02-21T08:40:15.482Z,101645.06
2023-02-21T08:42:43.303Z,101643.34
2023-02-21T08:45:17.206Z,101643.34
2023-02-21T08:47:45.669Z,101641.63
2023-02-21T08:50:13.539Z,101633.91
2023-02-21T08:52:41.478Z,101621.91
2023-02-21T08:55:09.655Z,101618.50
2023-02-21T08:57:38.843Z,101616.78
2023-02-21T09:00:10.514Z,101621.91
2023-02-21T09:02:40.860Z,101624.47
2023-02-21T09:05:10.284Z,101624.47
2023-02-21T09:07:38.146Z,101623.63
2023-02-21T09:10:09.788Z,101618.50
2023-02-21T09:12:39.920Z,101631.34
2023-02-21T09:15:09.033Z,101634.78
2023-02-21T09:17:37.066Z,101646.78
2023-02-21T09:20:07.147Z,101646.78
2023-02-21T09:22:35.510Z,101645.06
2023-02-21T09:25:04.624Z,101644.19
2023-02-21T09:27:38.227Z,101653.63
2023-02-21T09:30:11.276Z,101648.47
2023-02-21T09:32:39.732Z,101652.75
2023-02-21T09:35:08.517Z,101654.47
2023-02-21T09:37:39.005Z,101656.19
2023-02-21T09:40:12.930Z,101666.47
2023-02-21T09:42:41.416Z,101662.16
2023-02-21T09:45:16.801Z,101665.59
2023-02-21T09:47:46.394Z,101663.03
2023-02-21T09:50:19.257Z,101669.03
2023-02-21T09:52:48.097Z,101682.75
2023-02-21T09:55:26.256Z,101700.75
2023-02-21T09:57:54.083Z,101711.03
2023-02-21T10:00:26.929Z,101729.06
2023-02-21T10:03:04.101Z,101735.06
2023-02-21T10:05:44.563Z,101741.03
2023-02-21T10:08:23.396Z,101751.31
2023-02-21T10:10:55.568Z,101768.50
2023-02-21T10:13:39.370Z,101790.78
2023-02-21T10:16:14.037Z,101787.34
2023-02-21T10:18:48.649Z,101785.63
2023-02-21T10:21:24.672Z,101803.63
2023-02-21T10:23:55.303Z,101813.94
2023-02-21T10:26:27.337Z,101837.94
2023-02-21T10:28:56.996Z,101836.22
2023-02-21T10:31:33.716Z,101851.66
2023-02-21T10:34:02.580Z,101873.94
2023-02-21T10:36:30.489Z,101873.97
2023-02-21T10:39:05.059Z,101882.53
2023-02-21T10:41:37.644Z,101887.69
2023-02-21T10:44:09.316Z,101904.81
2023-02-21T10:46:45.371Z,101918.56
2023-02-21T10:49:24.679Z,101931.44
2023-02-21T10:52:07.100Z,101954.59
2023-02-21T10:54:35.617Z,101966.59
2023-02-21T10:57:05.511Z,101989.78
2023-02-21T10:59:35.836Z,102008.69
2023-02-21T11:02:27.243Z,102021.56
2023-02-21T11:04:56.101Z,102029.28
2023-02-21T11:07:24.561Z,102037.03
2023-02-21T11:09:52.406Z,102039.59
2023-02-21T11:12:24.368Z,102036.16
2023-02-21T11:15:18.605Z,102050.75
2023-02-21T11:18:05.038Z,102055.88
2023-02-21T11:20:32.876Z,102062.75
2023-02-21T11:23:00.875Z,102067.06
2023-02-21T11:25:31.960Z,102067.06
2023-02-21T11:28:06.538Z,102079.06
2023-02-21T11:30:37.272Z,102086.81
2023-02-21T11:33:08.847Z,102083.38
2023-02-21T11:35:40.784Z,102095.41
2023-02-21T11:38:10.428Z,102108.28
2023-02-21T11:40:44.352Z,102135.78
2023-02-21T11:43:24.872Z,102152.09
2023-02-21T11:46:10.372Z,102190.75
2023-02-21T11:48:46.651Z,102225.13
2023-02-21T11:51:31.312Z,102248.34
2023-02-21T11:53:59.241Z,102271.56
2023-02-21T11:56:35.245Z,102287.88
2023-02-21T11:59:13.134Z,102299.03
2023-02-21T12:01:50.079Z,102317.13
2023-02-21T12:04:34.949Z,102327.41
2023-02-21T12:07:13.231Z,102335.19
2023-02-21T12:09:49.571Z,102343.78
2023-02-21T12:12:34.713Z,102336.91
2023-02-21T12:15:14.415Z,102343.78
2023-02-21T12:18:04.092Z,102367.00
2023-02-21T12:20:51.357Z,102383.31
2023-02-21T12:23:26.446Z,102395.38
2023-02-21T12:26:09.962Z,102412.56
2023-02-21T12:29:00.556Z,102428.06
2023-02-21T12:31:41.597Z,102438.41
2023-02-21T12:34:30.310Z,102434.97
2023-02-21T12:37:15.441Z,102429.78
2023-02-21T12:40:11.552Z,102459.91
2023-02-21T12:42:55.651Z,102462.50
2023-02-21T12:48:38.073Z,102473.66
2023-02-21T12:51:10.727Z,102493.50
2023-02-21T12:53:42.697Z,102492.66
2023-02-21T12:56:16.154Z,102503.81
2023-02-21T12:58:48.704Z,102508.16
2023-02-21T13:01:21.696Z,102520.19
2023-02-21T13:03:57.631Z,102520.19
2023-02-21T13:06:31.586Z,102529.66
2023-02-21T13:09:18.394Z,102527.94
2023-02-21T13:11:56.034Z,102529.66
2023-02-21T13:14:28.216Z,102538.28
2023-02-21T13:16:56.349Z,102547.75
2023-02-21T13:19:26.916Z,102539.16
2023-02-21T13:22:22.129Z,102540.00
2023-02-21T13:25:17.054Z,102549.47
2023-02-21T13:27:58.962Z,102535.72
2023-02-21T13:30:38.957Z,102535.72
2023-02-21T13:33:07.819Z,102552.06
2023-02-21T13:35:38.762Z,102564.97
2023-02-21T13:38:08.763Z,102557.25
2023-02-21T13:40:50.979Z,102553.81
2023-02-21T13:43:25.317Z,102552.91
2023-02-21T13:45:53.721Z,102553.78
2023-02-21T13:48:25.887Z,102539.16
2023-02-21T13:50:55.569Z,102538.28
2023-02-21T13:53:25.961Z,102545.16
2023-02-21T13:56:26.408Z,102528.84
2023-02-21T13:59:34.315Z,102527.97
2023-02-21T14:02:23.010Z,102521.09
2023-02-21T14:05:01.582Z,102515.03
2023-02-21T14:07:46.077Z,102506.44
2023-02-21T14:10:39.927Z,102502.13
2023-02-21T14:13:21.279Z,102489.25
2023-02-21T14:15:57.319Z,102488.38
2023-02-21T14:18:29.160Z,102490.97
2023-02-21T14:20:58.006Z,102491.81
2023-02-21T14:23:42.027Z,102490.09
2023-02-21T14:26:41.454Z,102503.00
2023-02-21T14:29:32.645Z,102518.50
2023-02-21T14:32:29.155Z,102500.41
2023-02-21T14:34:59.947Z,102496.13
2023-02-21T14:37:36.468Z,102484.09
2023-02-21T14:40:21.677Z,102487.53
2023-02-21T14:43:02.420Z,102472.00
2023-02-21T14:45:52.687Z,102460.84
2023-02-21T14:48:46.881Z,102466.00
2023-02-21T14:51:58.068Z,102441.03
2023-02-21T14:54:44.958Z,102428.09
2023-02-21T14:57:34.998Z,102424.66
2023-02-21T15:00:15.077Z,102415.22
2023-02-21T15:02:49.682Z,102406.59
2023-02-21T15:05:23.508Z,102407.44
2023-02-21T15:08:00.778Z,102408.31
2023-02-21T15:10:30.252Z,102366.16
2023-02-21T15:13:00.589Z,102359.28
2023-02-21T15:15:30.948Z,102349.84
2023-02-21T15:18:04.388Z,102342.97
2023-02-21T15:20:35.442Z,102327.47
2023-02-21T15:23:12.630Z,102327.47
2023-02-21T15:25:41.014Z,102322.31
2023-02-21T15:28:21.317Z,102322.31
2023-02-21T15:30:59.181Z,102324.03
2023-02-21T15:33:28.056Z,102312.88
2023-02-21T15:36:00.962Z,102306.84
2023-02-21T15:38:33.276Z,102305.09
2023-02-21T15:41:06.739Z,102286.19
2023-02-21T15:43:43.562Z,102281.03
2023-02-21T15:46:16.632Z,102269.84
2023-02-21T15:48:44.895Z,102259.53
2023-02-21T15:51:14.790Z,102253.53
2023-02-21T15:53:42.757Z,102254.38
2023-02-21T15:56:23.397Z,102239.78
2023-02-21T15:59:09.497Z,102238.91
2023-02-21T16:01:37.622Z,102223.44
2023-02-21T16:04:16.540Z,102225.16
2023-02-21T16:06:55.759Z,102214.88
2023-02-21T16:09:27.983Z,102205.41
2023-02-21T16:12:01.151Z,102209.72
2023-02-21T16:14:39.758Z,102201.97
2023-02-21T16:17:21.985Z,102189.94
2023-02-21T16:19:53.801Z,102184.78
2023-02-21T16:22:38.739Z,102174.47
2023-02-21T16:25:18.442Z,102162.44
2023-02-21T16:27:50.164Z,102153.84
2023-02-21T16:30:20.994Z,102146.13
2023-02-21T16:32:50.455Z,102143.53
2023-02-21T16:35:21.472Z,102134.06
2023-02-21T16:37:53.470Z,102120.34
2023-02-21T16:40:25.037Z,102118.63
2023-02-21T16:42:54.360Z,102104.88
2023-02-21T16:45:22.878Z,102096.28
2023-02-21T16:47:56.490Z,102086.84
2023-02-21T16:50:29.830Z,102083.41
2023-02-21T16:52:59.443Z,102058.50
2023-02-21T16:55:27.792Z,102041.34
2023-02-21T16:58:00.367Z,102039.63
2023-02-21T17:00:28.076Z,102041.34
2023-02-21T17:02:55.833Z,102042.19
2023-02-21T17:05:24.808Z,102026.72
2023-02-21T17:07:53.705Z,102019.88
2023-02-21T17:10:23.032Z,102022.44
2023-02-21T17:12:50.907Z,102018.16
2023-02-21T17:15:18.887Z,102014.72
2023-02-21T17:17:53.270Z,102010.44
2023-02-21T17:20:23.098Z,102001.84
2023-02-21T17:22:51.305Z,101994.97
2023-02-21T17:25:19.981Z,101996.69
2023-02-21T17:27:49.448Z,101994.97
2023-02-21T17:30:19.584Z,101983.81
2023-02-21T17:32:47.653Z,101977.81
2023-02-21T17:35:20.544Z,101961.50
2023-02-21T17:37:49.647Z,101960.63
2023-02-21T17:40:18.995Z,101947.75
2023-02-21T17:42:46.924Z,101946.91
2023-02-21T17:45:18.749Z,101945.19
2023-02-21T17:47:46.771Z,101943.47
2023-02-21T17:50:14.781Z,101939.19
2023-02-21T17:52:43.178Z,101936.59
2023-02-21T17:55:17.660Z,101924.59
2023-02-21T17:57:45.654Z,101923.72
2023-02-21T18:00:23.110Z,101920.28
2023-02-21T18:02:51.344Z,101916.88
2023-02-21T18:05:19.911Z,101910.88
2023-02-21T18:07:49.109Z,101904.00
2023-02-21T18:10:17.929Z,101902.28
2023-02-21T18:12:48.176Z,101891.13
2023-02-21T18:15:17.572Z,101885.97
2023-02-21T18:17:46.923Z,101879.13
2023-02-21T18:20:16.019Z,101869.69
2023-02-21T18:22:44.429Z,101862.81
2023-02-21T18:25:14.523Z,101859.38
2023-02-21T18:27:42.582Z,101855.09
2023-02-21T18:30:11.706Z,101840.53
2023-02-21T18:32:39.486Z,101833.63
2023-02-21T18:35:09.227Z,101834.50
2023-02-21T18:37:37.026Z,101824.22
2023-02-21T18:40:06.617Z,101820.78
2023-02-21T18:42:34.531Z,101805.34
2023-02-21T18:45:02.345Z,101816.50
2023-02-21T18:47:31.912Z,101816.50
2023-02-21T18:49:59.801Z,101813.94
2023-02-21T18:52:29.532Z,101808.78
2023-02-21T18:55:03.252Z,101806.19
2023-02-21T18:57:31.540Z,101783.06
2023-02-21T18:59:59.722Z,101776.22
2023-02-21T19:02:27.731Z,101759.91
2023-02-21T19:04:55.573Z,101759.03
2023-02-21T19:07:23.482Z,101752.19
2023-02-21T19:09:52.534Z,101747.06
2023-02-21T19:12:20.358Z,101745.34
2023-02-21T19:14:48.218Z,101738.47
2023-02-21T19:17:16.004Z,101738.47
2023-02-21T19:19:43.800Z,101731.59
2023-02-21T19:22:11.575Z,101730.75
2023-02-21T19:24:39.370Z,101729.03
2023-02-21T19:27:08.876Z,101735.91
2023-02-21T19:29:37.144Z,101724.75
2023-02-21T19:32:05.306Z,101717.91
2023-02-21T19:34:33.194Z,101721.31
2023-02-21T19:37:00.999Z,101721.34
2023-02-21T19:39:28.827Z,101717.03
2023-02-21T19:41:56.606Z,101710.19
2023-02-21T19:44:25.867Z,101706.75
2023-02-21T19:46:53.755Z,101706.75
2023-02-21T19:49:22.020Z,101703.31
2023-02-21T19:51:52.599Z,101690.47
2023-02-21T19:54:22.779Z,101692.19
2023-02-21T19:56:50.889Z,101686.19
2023-02-21T19:59:19.330Z,101683.63
2023-02-21T20:01:48.999Z,101674.16
2023-02-21T20:04:18.671Z,101670.75
2023-02-21T20:06:48.130Z,101663.88
2023-02-21T20:09:15.913Z,101663.03
2023-02-21T20:11:43.825Z,101651.91
2023-02-21T20:14:13.197Z,101647.63
2023-02-21T20:16:42.126Z,101647.63
2023-02-21T20:19:12.101Z,101644.22
2023-02-21T20:21:40.580Z,101645.91
2023-02-21T20:24:08.505Z,101634.75
2023-02-21T20:26:36.305Z,101633.03
2023-02-21T20:29:04.374Z,101630.47
2023-02-21T20:31:35.572Z,101626.19
2023-02-21T20:34:05.320Z,101626.19
2023-02-21T20:36:36.370Z,101624.50
2023-02-21T20:39:05.144Z,101622.78
2023-02-21T20:41:35.491Z,101616.78
2023-02-21T20:44:03.465Z,101610.78
2023-02-21T20:46:32.362Z,101600.47
2023-02-21T20:49:01.741Z,101591.91
2023-02-21T20:51:30.740Z,101597.06
2023-02-21T20:54:01.094Z,101590.19
2023-02-21T20:56:33.839Z,101587.63
2023-02-21T20:59:01.833Z,101582.47
2023-02-21T21:01:29.637Z,101573.06
2023-02-21T21:03:57.597Z,101572.19
2023-02-21T21:06:26.219Z,101573.06
2023-02-21T21:08:54.170Z,101560.22
2023-02-21T21:11:23.603Z,101558.50
2023-02-21T21:13:51.583Z,101553.38
2023-02-21T21:16:20.174Z,101554.22
2023-02-21T21:18:48.063Z,101543.09
2023-02-21T21:21:16.282Z,101540.50
2023-02-21T21:23:44.143Z,101536.22
2023-02-21T21:26:12.113Z,101531.09
2023-02-21T21:28:41.446Z,101525.09
2023-02-21T21:31:09.932Z,101525.09
2023-02-21T21:33:37.692Z,101530.25
2023-02-21T21:36:09.073Z,101526.81
2023-02-21T21:38:40.522Z,101515.66
2023-02-21T21:41:13.694Z,101516.53
2023-02-21T21:43:43.925Z,101520.84
2023-02-21T21:46:13.435Z,101515.66
2023-02-21T21:48:44.207Z,101513.97
2023-02-21T21:51:14.268Z,101513.09
2023-02-21T21:53:42.550Z,101510.53
2023-02-21T21:56:11.289Z,101502.84
2023-02-21T21:58:39.162Z,101509.69
2023-02-21T22:01:08.464Z,101504.56
2023-02-21T22:03:36.241Z,101507.97
2023-02-21T22:06:10.890Z,101509.69
2023-02-21T22:08:38.975Z,101504.56
2023-02-21T22:11:09.717Z,101502.00
2023-02-21T22:13:37.724Z,101494.28
2023-02-21T22:16:05.910Z,101496.88
2023-02-21T22:18:35.067Z,101491.72
2023-02-21T22:21:03.200Z,101487.44
2023-02-21T22:23:30.972Z,101489.13
2023-02-21T22:25:58.952Z,101481.44
2023-02-21T22:28:27.004Z,101474.59
2023-02-21T22:30:55.385Z,101478.88
2023-02-21T22:33:23.252Z,101475.44
2023-02-21T22:35:52.344Z,101477.16
2023-02-21T22:38:20.176Z,101466.03
2023-02-21T22:40:47.980Z,101463.47
2023-02-21T22:43:17.745Z,101454.91
2023-02-21T22:45:49.793Z,101454.91
2023-02-21T22:48:20.872Z,101448.03
2023-02-21T22:50:49.916Z,101449.75
2023-02-21T22:53:21.125Z,101436.94
2023-02-21T22:55:51.878Z,101435.22
2023-02-21T22:58:21.277Z,101430.94
2023-02-21T23:00:50.308Z,101426.66
2023-02-21T23:06:36.220Z,101425.78
2023-02-21T23:09:12.077Z,101414.66
2023-02-21T23:11:40.869Z,101421.50
2023-02-21T23:14:09.390Z,101412.09
2023-02-21T23:16:38.145Z,101412.09
2023-02-21T23:19:06.790Z,101405.25
2023-02-21T23:21:36.684Z,101401.84
2023-02-21T23:24:04.953Z,101397.56
2023-02-21T23:26:32.918Z,101387.28
2023-02-21T23:29:00.873Z,101374.47
2023-02-21T23:31:28.954Z,101367.63
2023-02-21T23:33:56.797Z,101355.63
2023-02-21T23:36:24.736Z,101347.09
2023-02-21T23:38:53.870Z,101341.09
2023-02-21T23:41:21.624Z,101329.09
2023-02-21T23:43:51.345Z,101319.72
2023-02-21T23:46:22.997Z,101302.63
2023-02-21T23:48:53.590Z,101301.75
2023-02-21T23:51:22.243Z,101287.22
2023-02-21T23:53:50.243Z,101282.09
2023-02-21T23:56:19.370Z,101274.41
2023-02-21T23:58:47.482Z,101276.13
